createdAt,value
2023-06-26T00:02:52.876Z,4.25
2023-06-26T00:07:54.332Z,5.70
2023-06-26T00:12:55.790Z,4.38
2023-06-26T00:17:57.252Z,5.22
2023-06-26T00:22:59.796Z,6.57
2023-06-26T00:28:01.199Z,6.05
2023-06-26T00:33:02.632Z,5.93
2023-06-26T00:38:04.049Z,6.68
2023-06-26T00:43:05.468Z,5.35
2023-06-26T00:48:07.140Z,4.00
2023-06-26T00:53:11.771Z,6.38
2023-06-26T00:58:13.266Z,5.55
2023-06-26T01:03:14.733Z,5.00
2023-06-26T01:08:17.481Z,8.80
2023-06-26T01:13:19.078Z,5.60
2023-06-26T01:18:21.088Z,7.10
2023-06-26T01:23:32.697Z,7.28
2023-06-26T01:28:36.971Z,5.68
2023-06-26T01:33:39.227Z,5.20
2023-06-26T01:38:40.686Z,5.53
2023-06-26T01:44:02.646Z,8.02
2023-06-26T01:49:23.349Z,6.03
2023-06-26T01:54:31.361Z,7.10
2023-06-26T01:59:34.491Z,5.75
2023-06-26T02:04:36.073Z,6.38
2023-06-26T02:09:37.454Z,6.45
2023-06-26T02:14:38.884Z,7.00
2023-06-26T02:19:46.243Z,8.32
2023-06-26T02:24:47.649Z,6.45
2023-06-26T02:29:49.426Z,6.82
2023-06-26T02:34:52.856Z,6.60
2023-06-26T02:39:54.388Z,8.32
2023-06-26T02:44:55.803Z,5.68
2023-06-26T02:49:57.202Z,8.05
2023-06-26T02:54:58.587Z,6.45
2023-06-26T03:00:00.264Z,4.50
2023-06-26T03:05:02.188Z,9.98
2023-06-26T03:10:03.661Z,5.88
2023-06-26T03:15:05.412Z,7.65
2023-06-26T03:20:08.122Z,9.68
2023-06-26T03:25:09.692Z,8.00
2023-06-26T03:30:12.124Z,4.68
2023-06-26T03:35:13.724Z,6.32
2023-06-26T03:40:15.428Z,5.72
2023-06-26T03:45:16.906Z,11.55
2023-06-26T03:50:18.412Z,6.95
2023-06-26T03:55:20.220Z,8.38
2023-06-26T04:00:21.930Z,10.07
2023-06-26T04:05:23.453Z,6.65
2023-06-26T04:10:24.866Z,6.45
2023-06-26T04:15:26.338Z,7.57
2023-06-26T04:20:27.737Z,6.13
2023-06-26T04:25:30.249Z,9.20
2023-06-26T04:30:31.628Z,9.13
2023-06-26T04:35:37.648Z,12.07
2023-06-26T04:40:39.352Z,5.50
2023-06-26T04:45:41.068Z,12.32
2023-06-26T04:50:42.959Z,13.40
2023-06-26T04:55:44.341Z,7.53
2023-06-26T05:00:45.861Z,8.65
2023-06-26T05:05:47.385Z,11.93
2023-06-26T05:10:49.047Z,18.73
2023-06-26T05:15:50.848Z,7.15
2023-06-26T05:20:52.436Z,10.07
2023-06-26T05:25:54.323Z,8.40
2023-06-26T05:30:56.232Z,7.18
2023-06-26T05:35:59.710Z,7.75
2023-06-26T05:41:01.468Z,7.88
2023-06-26T05:46:02.974Z,6.97
2023-06-26T05:51:04.862Z,6.63
2023-06-26T05:56:06.666Z,12.75
2023-06-26T06:01:08.080Z,8.07
2023-06-26T06:06:09.560Z,11.45
2023-06-26T06:11:10.986Z,13.93
2023-06-26T06:16:12.444Z,7.72
2023-06-26T06:21:13.941Z,9.98
2023-06-26T06:26:15.362Z,10.32
2023-06-26T06:31:16.915Z,8.60
2023-06-26T06:36:18.396Z,7.93
2023-06-26T06:41:21.401Z,6.32
2023-06-26T06:46:23.030Z,7.90
2023-06-26T06:51:24.484Z,7.32
2023-06-26T06:56:25.941Z,6.78
2023-06-26T07:01:27.396Z,5.72
2023-06-26T07:06:28.804Z,9.25
2023-06-26T07:11:30.248Z,6.88
2023-06-26T07:16:31.737Z,9.40
2023-06-26T07:21:33.160Z,4.88
2023-06-26T07:26:44.462Z,6.38
2023-06-26T07:31:49.147Z,5.47
2023-06-26T07:36:50.699Z,5.75
2023-06-26T07:41:52.155Z,5.50
2023-06-26T07:46:53.616Z,3.75
2023-06-26T07:51:55.015Z,7.88
2023-06-26T07:57:02.470Z,7.68
2023-06-26T08:02:04.544Z,4.90
2023-06-26T08:07:06.454Z,8.95
2023-06-26T08:12:08.066Z,5.40
2023-06-26T08:17:11.353Z,4.40
2023-06-26T08:22:12.740Z,6.53
2023-06-26T08:27:14.163Z,6.18
2023-06-26T08:32:15.563Z,5.35
2023-06-26T08:37:17.124Z,4.97
2023-06-26T08:42:18.626Z,7.88
2023-06-26T08:47:22.778Z,5.45
2023-06-26T08:52:30.593Z,7.60
2023-06-26T08:57:33.225Z,5.00
2023-06-26T09:02:34.789Z,9.55
2023-06-26T09:07:36.366Z,5.45
2023-06-26T09:12:39.072Z,3.65
2023-06-26T09:17:43.781Z,6.53
2023-06-26T09:22:49.457Z,2.70
2023-06-26T09:32:55.370Z,3.92
2023-06-26T09:37:57.460Z,2.78
2023-06-26T09:43:09.198Z,3.70
2023-06-26T09:48:10.853Z,3.97
2023-06-26T09:53:16.339Z,3.83
2023-06-26T09:58:18.536Z,2.33
2023-06-26T10:03:20.118Z,4.03
2023-06-26T10:08:22.056Z,4.18
2023-06-26T10:13:31.723Z,4.97
2023-06-26T10:18:34.008Z,4.13
2023-06-26T10:23:37.556Z,4.35
2023-06-26T10:28:40.702Z,4.75
2023-06-26T10:33:42.526Z,3.58
2023-06-26T10:38:55.704Z,4.57
2023-06-26T10:44:00.997Z,5.65
2023-06-26T10:49:04.250Z,3.40
2023-06-26T10:54:05.662Z,5.47
2023-06-26T10:59:20.737Z,4.47
2023-06-26T11:04:54.229Z,5.32
2023-06-26T11:10:00.116Z,3.80
2023-06-26T11:15:02.140Z,3.67
2023-06-26T11:20:06.408Z,5.70
2023-06-26T11:25:09.559Z,3.25
2023-06-26T11:30:23.649Z,4.50
2023-06-26T11:35:31.856Z,6.28
2023-06-26T11:40:38.120Z,3.15
2023-06-26T11:45:41.484Z,4.07
2023-06-26T11:50:43.659Z,4.60
2023-06-26T11:55:46.764Z,3.10
2023-06-26T12:00:48.844Z,4.15
2023-06-26T12:05:53.457Z,3.00
2023-06-26T12:10:55.031Z,3.50
2023-06-26T12:15:56.511Z,2.88
2023-06-26T12:20:57.990Z,5.40
2023-06-26T12:25:59.592Z,4.18
2023-06-26T12:31:17.000Z,4.30
2023-06-26T12:36:18.537Z,6.00
2023-06-26T12:41:21.247Z,4.28
2023-06-26T12:46:34.507Z,6.28
2023-06-26T12:51:36.064Z,7.22
2023-06-26T12:56:37.547Z,7.78
2023-06-26T13:01:39.330Z,4.70
2023-06-26T13:06:40.783Z,4.47
2023-06-26T13:11:42.414Z,2.15
2023-06-26T13:16:43.919Z,4.72
2023-06-26T13:21:45.428Z,2.88
2023-06-26T13:26:46.933Z,3.83
2023-06-26T13:31:48.422Z,6.25
2023-06-26T13:36:49.903Z,2.42
2023-06-26T13:41:51.388Z,4.05
2023-06-26T13:46:53.076Z,6.75
2023-06-26T13:51:54.542Z,3.28
2023-06-26T13:56:58.832Z,5.90
2023-06-26T14:02:00.850Z,4.22
2023-06-26T14:07:02.492Z,3.53
2023-06-26T14:12:04.324Z,3.03
2023-06-26T14:17:07.064Z,3.38
2023-06-26T14:22:08.680Z,1.77
2023-06-26T14:27:10.146Z,2.47
2023-06-26T14:32:12.222Z,2.90
2023-06-26T14:37:13.595Z,4.68
2023-06-26T14:42:16.109Z,3.47
2023-06-26T14:47:19.020Z,2.22
2023-06-26T14:52:20.459Z,1.90
2023-06-26T14:57:22.054Z,3.90
2023-06-26T15:02:23.525Z,1.77
2023-06-26T15:07:25.127Z,2.65
2023-06-26T15:12:28.268Z,6.55
2023-06-26T15:17:29.765Z,1.33
2023-06-26T15:22:31.172Z,5.57
2023-06-26T15:27:32.590Z,4.35
2023-06-26T15:32:34.208Z,2.75
2023-06-26T15:37:35.638Z,1.38
2023-06-26T15:42:46.664Z,1.17
2023-06-26T15:47:48.563Z,2.03
2023-06-26T15:52:50.186Z,3.33
2023-06-26T15:57:51.591Z,2.83
2023-06-26T16:02:53.025Z,2.10
2023-06-26T16:07:57.268Z,3.38
2023-06-26T16:12:59.393Z,1.73
2023-06-26T16:18:00.957Z,1.50
2023-06-26T16:23:02.352Z,1.77
2023-06-26T16:28:03.755Z,1.55
2023-06-26T16:33:05.192Z,2.45
2023-06-26T16:38:10.432Z,4.00
2023-06-26T16:43:12.914Z,2.40
2023-06-26T16:48:14.888Z,1.70
2023-06-26T16:53:16.446Z,1.40
2023-06-26T16:58:19.617Z,2.10
2023-06-26T17:03:23.670Z,4.32
2023-06-26T17:08:26.063Z,4.13
2023-06-26T17:13:27.628Z,1.65
2023-06-26T17:18:29.014Z,4.68
2023-06-26T17:23:31.094Z,2.53
2023-06-26T17:28:32.725Z,2.05
2023-06-26T17:33:34.150Z,3.00
2023-06-26T17:38:36.902Z,1.20
2023-06-26T17:43:38.327Z,4.97
2023-06-26T17:48:39.749Z,1.88
2023-06-26T17:53:41.128Z,1.00
2023-06-26T17:58:42.565Z,2.00
2023-06-26T18:03:44.115Z,3.03
2023-06-26T18:08:45.579Z,3.00
2023-06-26T18:13:46.977Z,1.67
2023-06-26T18:18:48.383Z,3.90
2023-06-26T18:23:51.397Z,6.38
2023-06-26T18:28:54.094Z,2.58
2023-06-26T18:33:55.770Z,3.95
2023-06-26T18:38:57.370Z,2.92
2023-06-26T18:43:58.743Z,1.90
2023-06-26T18:49:04.173Z,1.42
2023-06-26T18:54:05.735Z,3.15
2023-06-26T18:59:07.234Z,2.47
2023-06-26T19:04:08.755Z,5.00
2023-06-26T19:09:11.266Z,1.17
2023-06-26T19:14:12.710Z,0.80
2023-06-26T19:19:14.309Z,3.80
2023-06-26T19:24:17.544Z,2.88
2023-06-26T19:29:20.596Z,3.10
2023-06-26T19:34:22.201Z,3.13
2023-06-26T19:39:23.696Z,1.13
2023-06-26T19:44:28.116Z,5.65
2023-06-26T19:49:29.587Z,3.70
2023-06-26T19:54:31.104Z,4.13
2023-06-26T19:59:32.583Z,1.40
2023-06-26T20:04:34.051Z,2.03
2023-06-26T20:09:37.839Z,2.90
2023-06-26T20:14:40.063Z,1.55
2023-06-26T20:19:42.205Z,1.48
2023-06-26T20:24:45.781Z,2.75
2023-06-26T20:29:47.240Z,1.92
2023-06-26T20:34:49.433Z,3.95
2023-06-26T20:39:51.204Z,2.95
2023-06-26T20:44:53.115Z,1.45
2023-06-26T20:49:54.805Z,2.92
2023-06-26T20:54:56.515Z,3.83
2023-06-26T20:59:57.995Z,2.80
2023-06-26T21:04:59.415Z,3.20
2023-06-26T21:10:01.500Z,4.55
2023-06-26T21:15:03.102Z,1.52
2023-06-26T21:20:05.397Z,4.45
2023-06-26T21:25:06.975Z,2.78
2023-06-26T21:30:09.238Z,1.40
2023-06-26T21:35:10.778Z,2.70
2023-06-26T21:40:13.037Z,2.10
2023-06-26T21:45:14.452Z,1.20
2023-06-26T21:50:15.870Z,0.45
2023-06-26T21:55:17.310Z,2.88
2023-06-26T22:00:19.720Z,2.17
2023-06-26T22:05:21.378Z,4.30
2023-06-26T22:10:23.556Z,4.60
2023-06-26T22:15:24.992Z,3.03
2023-06-26T22:20:28.131Z,3.55
2023-06-26T22:25:29.537Z,2.90
2023-06-26T22:30:30.989Z,2.90
2023-06-26T22:35:32.609Z,1.40
2023-06-26T22:40:34.051Z,1.02
2023-06-26T22:45:35.519Z,1.30
2023-06-26T22:50:37.249Z,0.47
2023-06-26T22:55:39.013Z,4.72
2023-06-26T23:00:40.618Z,2.60
2023-06-26T23:05:42.380Z,1.75
2023-06-26T23:10:43.975Z,1.10
2023-06-26T23:15:45.348Z,0.68
2023-06-26T23:20:47.162Z,1.42
2023-06-26T23:25:48.550Z,1.90
2023-06-26T23:30:50.022Z,2.75
2023-06-26T23:35:52.005Z,1.40
2023-06-26T23:40:53.459Z,1.45
2023-06-26T23:45:54.829Z,4.05
2023-06-26T23:50:56.219Z,4.13
2023-06-26T23:55:57.658Z,0.45
